Latest Weather Observations for Gosford

IDN60901

Issued at 11:31 pm EDT Tuesday 31 March 2015 (issued every 10 minutes, with the page automatically refreshed every 10 minutes)

About weather observations | Map of Sydney area stations | Latest observations for Sydney area | Other Formats
Station Details ID: 061425 Name: GOSFORD AWS Lat: -33.44 Lon: 151.36 Height: 7.0 m
Data from the previous 72 hours. | See also: Recent months at Gosford
Date/Time
EDT
Tmp

°C
App
Tmp
°C
Dew
Point
°C
Rel
Hum
%
Delta-T

°C
Wind Press
QNH
hPa
Press
MSL
hPa
Rain
since
9 am
mm
Dir
 
Spd
km/h
Gust
km/h
Spd
kts
Gust
kts
31/11:30pm 18.0 20.6 17.4 96 0.4 CALM 0 0 0 0 - - 7.0
31/11:00pm 17.8 20.2 17.0 95 0.5 CALM 0 0 0 0 - - 7.0
31/10:30pm 18.2 20.8 17.6 96 0.4 CALM 0 0 0 0 - - 6.8
31/10:00pm 18.6 21.4 17.9 96 0.4 CALM 0 0 0 0 - - 6.8
31/09:30pm 18.8 21.5 17.8 94 0.6 CALM 0 0 0 0 - - 6.8
31/09:00pm 18.7 20.6 17.7 94 0.6 NE 4 6 2 3 - - 6.8
31/08:30pm 19.0 19.3 17.8 93 0.7 NE 13 24 7 13 - - 6.8
31/08:00pm 19.2 21.7 17.2 88 1.2 CALM 0 2 0 1 - - 4.4
31/07:30pm 19.2 21.5 16.8 86 1.4 CALM 0 0 0 0 - - 4.4
31/07:00pm 20.2 22.0 16.4 79 2.3 ESE 2 6 1 3 - - 4.4
31/06:30pm 20.8 21.8 16.4 76 2.7 SE 6 9 3 5 - - 4.4
31/06:00pm 21.4 22.0 15.7 70 3.4 ESE 7 15 4 8 - - 4.4
31/05:30pm 22.3 22.9 16.8 71 3.4 SE 9 13 5 7 - - 4.4
31/05:00pm 22.4 23.9 17.5 74 3.0 SE 6 13 3 7 - - 4.4
31/04:30pm 22.8 23.5 17.0 70 3.6 ESE 9 19 5 10 - - 4.4
31/04:00pm 22.3 23.0 17.0 72 3.2 ESE 9 15 5 8 - - 4.4
31/03:30pm 21.9 23.2 17.1 74 2.9 NE 6 9 3 5 - - 4.4
31/03:00pm 21.7 23.8 18.1 80 2.2 E 4 6 2 3 - - 4.4
31/02:30pm 21.8 23.2 17.4 76 2.7 ESE 6 9 3 5 - - 4.4
31/02:00pm 22.1 24.6 18.1 78 2.5 SSE 2 4 1 2 - - 4.4
31/01:30pm 21.7 23.9 18.3 81 2.1 WSW 4 9 2 5 - - 4.4
31/01:00pm 21.4 24.0 18.4 83 1.9 NNE 2 7 1 4 - - 4.4
31/12:30pm 20.4 23.0 18.3 88 1.3 NW 2 4 1 2 - - 4.4
31/12:00pm 19.3 21.6 17.6 90 1.0 SSW 2 6 1 3 - - 4.4
31/11:30am 18.7 21.3 17.5 93 0.7 CALM 0 2 0 1 - - 4.2
31/11:00am 18.6 20.6 17.8 95 0.5 NE 4 7 2 4 - - 3.8
31/10:30am 18.7 21.6 18.2 97 0.3 CALM 0 2 0 1 - - 3.4
31/10:00am 18.6 21.5 18.1 97 0.3 CALM 0 2 0 1 - - 1.4
31/09:30am 18.5 20.6 18.0 97 0.3 NNE 4 7 2 4 - - 1.0
31/09:00am 18.3 19.4 18.0 98 0.2 S 9 19 5 10 - - 21.4
31/08:30am 18.1 20.4 17.6 97 0.3 NNE 2 7 1 4 - - 1.6
31/08:00am 17.5 19.9 17.0 97 0.3 CALM 0 0 0 0 - - 1.6
31/07:30am 17.4 19.7 16.8 96 0.4 CALM 0 0 0 0 - - 1.4
31/07:00am 17.6 20.0 17.0 96 0.4 CALM 0 0 0 0 - - 1.4
31/06:30am 17.8 20.3 17.2 96 0.4 CALM 0 0 0 0 - - 1.4
31/06:00am 17.7 20.1 17.1 96 0.4 CALM 0 0 0 0 - - 1.4
31/05:30am 17.6 19.9 16.8 95 0.5 CALM 0 2 0 1 - - 1.4
31/05:00am 17.9 19.2 17.1 95 0.5 SW 6 9 3 5 - - 1.4
31/04:30am 17.8 19.5 17.2 96 0.4 W 4 6 2 3 - - 1.4
31/04:00am 17.9 19.7 17.3 96 0.4 NW 4 6 2 3 - - 1.4
31/03:30am 18.2 20.8 17.6 96 0.4 CALM 0 0 0 0 - - 1.4
31/03:00am 18.2 20.1 17.7 97 0.3 W 4 6 2 3 - - 1.4
31/02:30am 18.0 20.6 17.4 96 0.4 CALM 0 0 0 0 - - 1.4
31/02:00am 17.9 20.4 17.3 96 0.4 CALM 0 4 0 2 - - 1.4
31/01:30am 17.8 20.2 17.0 95 0.5 CALM 0 0 0 0 - - 1.4
31/01:00am 17.8 20.3 17.2 96 0.4 CALM 0 0 0 0 - - 1.4
31/12:30am 17.9 20.3 17.1 95 0.5 CALM 0 2 0 1 - - 1.4
31/12:00am 17.8 20.2 17.0 95 0.5 CALM 0 0 0 0 - - 1.4
 
Date/Time
EDT
Tmp

°C
App
Tmp
°C
Dew
Point
°C
Rel
Hum
%
Delta-T

°C
Wind Press
QNH
hPa
Press
MSL
hPa
Rain
since
9 am
mm
Dir
 
Spd
km/h
Gust
km/h
Spd
kts
Gust
kts
30/11:30pm 17.9 19.5 16.9 94 0.6 NNW 4 4 2 2 - - 1.4
30/11:00pm 18.0 20.0 16.9 93 0.7 NNW 2 6 1 3 - - 1.4
30/10:30pm 18.1 19.3 16.8 92 0.8 E 6 11 3 6 - - 1.4
30/10:00pm 18.5 19.0 16.5 88 1.2 NE 9 17 5 9 - - 1.2
30/09:30pm 19.0 20.2 16.8 87 1.3 NNE 6 13 3 7 - - 1.2
30/09:00pm 20.4 23.3 19.1 92 0.8 NNE 2 13 1 7 - - 1.0
30/08:30pm 20.6 23.6 18.4 87 1.4 CALM 0 2 0 1 - - 0.0
30/08:00pm 20.5 22.9 17.9 85 1.6 NW 2 2 1 1 - - 0.0
30/07:30pm 20.9 23.7 17.9 83 1.9 CALM 0 0 0 0 - - 0.0
30/07:00pm 21.3 24.1 17.9 81 2.1 CALM 0 2 0 1 - - 0.0
30/06:30pm 21.6 23.2 17.8 79 2.4 ENE 6 9 3 5 - - 0.0
30/06:00pm 21.9 23.4 18.1 79 2.4 ENE 7 13 4 7 - - 0.0
30/05:30pm 22.3 24.1 18.3 78 2.5 ENE 6 11 3 6 - - 0.0
30/05:00pm 22.0 23.5 18.0 78 2.5 ENE 7 11 4 6 - - 0.0
30/04:30pm 22.1 22.9 17.2 74 3.0 ENE 9 15 5 8 - - 0.0
30/04:00pm 21.9 22.7 17.3 75 2.8 E 9 15 5 8 - - 0.0
30/03:30pm 22.0 22.8 17.2 74 2.9 E 9 15 5 8 - - 0.0
30/03:00pm 22.0 23.1 17.2 74 2.9 ENE 7 15 4 8 - - 0.0
30/02:30pm 21.9 21.4 16.8 73 3.1 E 15 24 8 13 - - 0.0
30/02:00pm 21.9 22.7 17.3 75 2.8 ESE 9 17 5 9 - - 0.0
30/01:30pm 21.8 22.6 17.2 75 2.8 E 9 15 5 8 - - 0.0
30/01:00pm 21.6 21.2 17.2 76 2.7 ESE 15 28 8 15 - - 0.0
30/12:30pm 22.1 22.0 17.0 73 3.1 SE 13 24 7 13 - - 0.0
30/12:00pm 22.7 22.8 17.4 72 3.3 S 13 22 7 12 - - 0.0
30/11:30am 23.3 25.2 18.6 75 3.0 SSE 6 9 3 5 - - 0.0
30/11:00am 21.9 23.2 17.5 76 2.7 S 7 11 4 6 - - 0.0
30/10:30am 21.5 24.3 17.9 80 2.2 CALM 0 2 0 1 - - 0.0
30/10:00am 20.3 22.1 17.5 84 1.7 WNW 4 6 2 3 - - 0.0
30/09:30am 19.3 21.9 17.6 90 1.0 CALM 0 4 0 2 - - 0.0
30/09:00am 19.1 21.6 17.2 89 1.2 CALM 0 0 0 0 - - 0.0
30/08:30am 19.1 20.5 17.4 90 1.0 NNW 6 7 3 4 - - 0.0
30/08:00am 19.0 21.1 17.3 90 1.0 NNW 2 4 1 2 - - 0.0
30/07:30am 19.0 20.8 17.3 90 1.0 WNW 4 7 2 4 - - 0.0
30/07:00am 18.8 20.2 17.3 91 0.9 W 6 11 3 6 - - 0.0
30/06:30am 18.7 20.6 17.7 94 0.6 W 4 6 2 3 - - 0.0
30/06:00am 18.2 20.8 17.4 95 0.5 CALM 0 6 0 3 - - 0.0
30/05:30am 18.1 20.6 17.3 95 0.5 CALM 0 0 0 0 - - 0.0
30/05:00am 18.0 20.5 17.2 95 0.5 CALM 0 0 0 0 - - 0.0
30/04:30am 18.1 20.2 17.3 95 0.5 NNW 2 2 1 1 - - 0.0
30/04:00am 17.9 20.3 16.9 94 0.6 CALM 0 0 0 0 - - 0.0
30/03:30am 17.9 20.3 16.9 94 0.6 CALM 0 0 0 0 - - 0.0
30/03:00am 18.0 20.4 17.0 94 0.6 CALM 0 0 0 0 - - 0.0
30/02:30am 17.9 20.2 16.8 93 0.7 CALM 0 0 0 0 - - 0.0
30/02:00am 18.1 20.5 17.1 94 0.6 CALM 0 0 0 0 - - 0.0
30/01:30am 18.1 20.5 17.0 93 0.7 CALM 0 0 0 0 - - 0.0
30/01:00am 18.1 20.4 16.8 92 0.8 CALM 0 0 0 0 - - 0.0
30/12:30am 18.2 20.6 16.9 92 0.8 CALM 0 0 0 0 - - 0.0
30/12:00am 18.4 20.1 17.2 93 0.7 N 4 6 2 3 - - 0.0
 
Date/Time
EDT
Tmp

°C
App
Tmp
°C
Dew
Point
°C
Rel
Hum
%
Delta-T

°C
Wind Press
QNH
hPa
Press
MSL
hPa
Rain
since
9 am
mm
Dir
 
Spd
km/h
Gust
km/h
Spd
kts
Gust
kts
29/11:30pm 18.5 21.0 17.2 92 0.8 CALM 0 2 0 1 - - 0.0
29/11:00pm 18.4 20.6 16.6 89 1.1 CALM 0 0 0 0 - - 0.0
29/10:30pm 19.0 21.1 17.3 90 1.0 NW 2 4 1 2 - - 0.0
29/10:00pm 19.0 21.4 17.0 88 1.2 CALM 0 0 0 0 - - 0.0
29/09:30pm 19.1 21.3 16.5 85 1.6 CALM 0 2 0 1 - - 0.0
29/09:00pm 19.5 20.9 16.5 83 1.8 E 4 6 2 3 - - 0.0
29/08:30pm 20.1 21.2 16.7 81 2.1 NE 6 7 3 4 - - 0.0
29/08:00pm 20.4 21.5 16.6 79 2.3 ENE 6 7 3 4 - - 0.0
29/07:30pm 20.8 21.8 16.4 76 2.7 NE 6 9 3 5 - - 0.0
29/07:00pm 21.0 21.9 16.2 74 2.9 NE 6 9 3 5 - - 0.0
29/06:30pm 21.4 22.2 16.4 73 3.0 ENE 7 11 4 6 - - 0.0
29/06:00pm 21.7 22.6 16.2 71 3.3 NE 6 11 3 6 - - 0.0
29/05:30pm 22.1 22.9 16.4 70 3.5 ENE 7 13 4 7 - - 0.0
29/05:00pm 22.5 22.6 16.5 69 3.7 ENE 11 17 6 9 - - 0.0
29/04:30pm 22.7 23.3 16.7 69 3.7 NE 9 13 5 7 - - 0.0
29/04:00pm 22.9 22.4 16.0 65 4.2 ENE 13 19 7 10 - - 0.0
29/03:30pm 23.9 23.7 16.7 64 4.4 ENE 13 20 7 11 - - 0.0
29/03:00pm 23.7 22.5 16.2 63 4.6 ENE 17 24 9 13 - - 0.0
29/02:30pm 23.8 23.3 16.8 65 4.3 ENE 15 24 8 13 - - 0.0
29/02:00pm 25.0 25.5 17.5 63 4.7 E 11 19 6 10 - - 0.0
29/01:30pm 23.9 24.6 15.7 60 5.0 ENE 6 11 3 6 - - 0.0
29/01:00pm 24.6 24.9 16.1 59 5.2 NE 9 15 5 8 - - 0.0
29/12:30pm 24.5 25.1 15.7 58 5.3 NNE 7 13 4 7 - - 0.0
29/12:00pm 23.6 24.4 16.4 64 4.4 NNE 7 15 4 8 - - 0.0
29/11:30am 22.2 23.0 15.8 67 3.8 NW 6 7 3 4 - - 0.0
29/11:00am 21.0 21.7 15.5 71 3.3 SSE 6 9 3 5 - - 0.0
29/10:30am 20.8 22.6 15.6 72 3.1 CALM 0 4 0 2 - - 0.0
29/10:00am 19.5 21.0 15.6 78 2.3 S 2 6 1 3 - - 0.0
29/09:30am 17.5 18.8 15.1 86 1.4 S 2 4 1 2 - - 0.0
29/09:00am 16.4 18.2 15.6 95 0.5 CALM 0 0 0 0 - - 0.0
29/08:30am 15.1 16.5 14.5 96 0.3 CALM 0 0 0 0 - - 0.0
29/07:00am 13.3 14.1 12.7 96 0.3 CALM 0 0 0 0 - - 0.0
29/06:30am 13.2 14.0 12.4 95 0.4 CALM 0 0 0 0 - - 0.0
29/06:00am 12.9 13.6 12.1 95 0.4 CALM 0 0 0 0 - - 0.0
29/05:30am 13.5 14.3 12.7 95 0.4 CALM 0 0 0 0 - - 0.0
29/05:00am 13.5 14.3 12.6 94 0.5 CALM 0 0 0 0 - - 0.0
29/04:30am 13.8 14.6 12.7 93 0.6 CALM 0 0 0 0 - - 0.0
29/04:00am 14.2 15.3 13.4 95 0.4 CALM 0 0 0 0 - - 0.0
29/03:30am 13.9 14.9 13.1 95 0.4 CALM 0 0 0 0 - - 0.0
29/03:00am 13.3 14.1 12.4 94 0.5 CALM 0 0 0 0 - - 0.0
29/02:30am 13.1 13.7 12.0 93 0.6 CALM 0 0 0 0 - - 0.0
29/02:00am 13.3 14.0 12.2 93 0.6 CALM 0 0 0 0 - - 0.0
29/01:30am 13.7 14.5 12.6 93 0.6 CALM 0 0 0 0 - - 0.0
29/01:00am 13.9 14.7 12.6 92 0.7 CALM 0 0 0 0 - - 0.0
29/12:30am 14.0 14.8 12.4 90 0.9 CALM 0 0 0 0 - - 0.0
29/12:00am 14.4 15.3 13.0 91 0.8 CALM 0 0 0 0 - - 0.0

Latest Capital City Observations: Canberra | Sydney | Melbourne | Brisbane | Adelaide | Perth | Hobart | Darwin

Other Formats:

Comma delimited format used in spreadsheet applications
http://www.bom.gov.au/fwo/IDN60901/IDN60901.94782.axf

JavaScript Object Notation format (JSON) in row-major order
http://www.bom.gov.au/fwo/IDN60901/IDN60901.94782.json